Time;durP1;ratioP1;P1;durP2;ratioP2;P2;SDS_P1;SDS_P2;PMS_P1;PMS_P2;Temp;Humidity;BMP_temperature;BMP_pressure;BME280_temperature;BME280_humidity;BME280_pressure;Samples;Min_cycle;Max_cycle;Signal;HPM_P1;HPM_P2
2022/12/13 00:00:21;;;;;;;26.97;16.55;;;;;;;1.61;89.26;100039.45;1698886;84;21662;-59
2022/12/13 00:03:31;;;;;;;28.07;16.27;;;;;;;1.61;89.30;100046.67;1701581;83;21221;-58
2022/12/13 00:06:42;;;;;;;24.98;15.80;;;;;;;1.58;89.29;100051.84;1698942;84;21323;-59
2022/12/13 00:09:55;;;;;;;25.23;16.02;;;;;;;1.57;89.28;100055.51;1698825;84;21757;-58
2022/12/13 00:13:07;;;;;;;25.82;16.00;;;;;;;1.58;89.29;100048.28;1698741;84;21766;-59
2022/12/13 00:16:13;;;;;;;25.40;15.87;;;;;;;1.57;89.32;100046.58;1702058;83;21212;-58
2022/12/13 00:19:12;;;;;;;25.68;15.93;;;;;;;1.56;89.30;100056.50;1698932;84;21264;-58
2022/12/13 00:22:20;;;;;;;25.60;15.58;;;;;;;1.58;89.40;100059.07;1698989;84;21721;-58
2022/12/13 00:25:35;;;;;;;24.30;15.38;;;;;;;1.62;89.42;100051.11;1699166;84;21911;-58
2022/12/13 00:28:43;;;;;;;26.55;15.68;;;;;;;1.64;89.39;100058.55;1699142;84;21283;-57
2022/12/13 00:31:54;;;;;;;26.50;15.13;;;;;;;1.66;89.47;100051.20;1701940;84;21351;-58
2022/12/13 00:38:41;;;;;;;27.27;16.77;;;;;;;1.78;89.61;100046.12;1702343;83;21232;-59
2022/12/13 00:41:53;;;;;;;28.73;17.40;;;;;;;1.86;89.64;100049.89;1687225;84;21727;-59
2022/12/13 00:45:05;;;;;;;35.33;21.55;;;;;;;1.90;89.61;100051.37;1698855;84;21379;-58
2022/12/13 00:48:17;;;;;;;33.10;18.90;;;;;;;1.94;89.55;100054.64;1700958;84;21264;-59
2022/12/13 00:51:34;;;;;;;34.80;18.02;;;;;;;1.96;89.52;100056.72;1673286;84;21228;-58
2022/12/13 00:54:47;;;;;;;27.55;17.30;;;;;;;1.98;89.55;100057.45;1698816;84;21228;-57
2022/12/13 00:58:09;;;;;;;28.60;16.87;;;;;;;2.03;89.60;100056.58;1645421;87;21756;-58
2022/12/13 01:01:18;;;;;;;;;;;;;;;2.08;89.60;100051.14;1667147;86;21266;-58
2022/12/13 01:04:33;;;;;;;25.85;16.35;;;;;;;2.13;89.58;100052.09;1651223;86;20243;-58
2022/12/13 01:07:44;;;;;;;23.10;14.78;;;;;;;2.16;89.60;100049.12;1645761;87;21373;-58
2022/12/13 01:10:57;;;;;;;;;;;;;;;2.18;89.58;100043.98;1646603;86;21234;-57
2022/12/13 01:14:08;;;;;;;26.87;15.05;;;;;;;2.19;89.48;100039.45;1645883;86;20207;-58
2022/12/13 01:17:18;;;;;;;22.35;14.75;;;;;;;2.21;89.42;100028.86;1645750;87;21803;-57
2022/12/13 01:20:30;;;;;;;24.37;14.55;;;;;;;2.22;89.26;100022.98;1645912;86;21732;-58
2022/12/13 01:23:49;;;;;;;24.95;14.28;;;;;;;2.23;89.15;100023.33;1646004;85;21316;-58
2022/12/13 01:27:01;;;;;;;28.55;16.35;;;;;;;2.25;89.13;100023.55;1616038;88;21285;-58
2022/12/13 01:30:11;;;;;;;25.92;16.00;;;;;;;2.31;89.15;100025.74;1601261;88;21265;-58
2022/12/13 01:33:22;;;;;;;22.75;14.78;;;;;;;2.37;89.18;100020.29;1615945;88;21734;-58
2022/12/13 01:36:34;;;;;;;26.73;15.83;;;;;;;2.40;89.14;100028.98;1616469;87;21241;-58
2022/12/13 01:39:46;;;;;;;24.82;14.70;;;;;;;2.43;89.05;100031.91;1615203;87;21773;-58
2022/12/13 01:43:02;;;;;;;26.97;16.42;;;;;;;2.45;88.96;100038.03;1616924;87;21245;-58
2022/12/13 01:46:23;;;;;;;27.52;15.63;;;;;;;2.45;88.85;100032.63;1617716;86;21221;-58
2022/12/13 01:49:38;;;;;;;22.00;13.90;;;;;;;2.46;88.76;100037.03;1615873;87;21280;-58
2022/12/13 01:52:51;;;;;;;25.00;15.72;;;;;;;2.46;88.63;100038.39;1616816;87;21257;-58
2022/12/13 01:56:03;;;;;;;24.98;15.00;;;;;;;2.33;88.33;100040.46;1616817;87;21213;-58
2022/12/13 01:59:15;;;;;;;21.95;14.30;;;;;;;2.28;88.31;100035.46;1601738;88;21316;-59
2022/12/13 02:02:29;;;;;;;26.35;16.60;;;;;;;2.29;88.33;100043.05;1616401;87;21210;-57
2022/12/13 02:05:48;;;;;;;23.50;15.58;;;;;;;2.30;88.33;100040.21;1615939;88;21281;-59
2022/12/13 02:09:05;;;;;;;26.00;16.70;;;;;;;2.30;88.30;100042.08;1615954;88;21277;-59
2022/12/13 02:12:18;;;;;;;25.52;16.15;;;;;;;2.27;88.16;100045.02;1616032;88;21265;-59
2022/12/13 02:15:34;;;;;;;25.10;15.58;;;;;;;2.28;88.12;100048.97;1617462;87;21300;-58
2022/12/13 02:19:40;;;;;;;24.10;15.00;;;;;;;2.32;88.12;100045.48;1615986;89;21320;-58
2022/12/13 02:23:28;;;;;;;26.17;16.07;;;;;;;2.29;87.94;100052.02;1619447;87;21297;-55
2022/12/13 02:27:15;;;;;;;26.97;15.75;;;;;;;2.31;88.00;100043.30;1641367;83;21351;-58
2022/12/13 02:30:42;;;;;;;25.15;15.08;;;;;;;2.36;88.16;100057.23;1579662;87;21291;-58
2022/12/13 02:34:19;;;;;;;27.98;16.42;;;;;;;2.38;88.27;100059.83;1641625;86;21409;-57
2022/12/13 02:37:58;;;;;;;25.15;15.38;;;;;;;2.40;88.39;100054.64;1641745;87;21228;-59
2022/12/13 02:41:25;;;;;;;25.97;15.43;;;;;;;2.40;88.33;100065.45;1641762;86;21259;-58
2022/12/13 02:44:47;;;;;;;23.98;14.18;;;;;;;2.36;88.31;100068.03;1627398;86;21943;-58
2022/12/13 02:47:59;;;;;;;24.55;15.72;;;;;;;2.35;88.32;100076.27;1642853;86;21227;-58
2022/12/13 02:51:11;;;;;;;24.80;15.38;;;;;;;2.38;88.28;100074.69;1641725;86;21887;-57
2022/12/13 02:54:24;;;;;;;22.48;13.62;;;;;;;2.39;88.25;100062.39;1626646;87;21283;-57
2022/12/13 02:57:47;;;;;;;22.73;14.25;;;;;;;2.39;88.16;100063.75;1641671;86;21819;-57
2022/12/13 03:01:31;;;;;;;21.35;13.18;;;;;;;2.40;88.09;100055.13;1641368;86;21235;-57
2022/12/13 03:09:27;;;;;;;22.20;14.43;;;;;;;2.44;88.12;100057.42;1638032;86;21791;-57
2022/12/13 03:16:46;;;;;;;22.87;14.85;;;;;;;2.42;87.91;100066.66;1641998;86;21231;-57
2022/12/13 03:19:54;;;;;;;23.38;14.45;;;;;;;2.43;87.81;100069.72;1641926;86;21247;-59
2022/12/13 03:23:02;;;;;;;25.05;15.30;;;;;;;2.39;87.58;100064.23;1626824;86;21219;-57
2022/12/13 03:26:21;;;;;;;24.32;14.83;;;;;;;2.37;87.46;100073.81;1605474;86;21844;-57
2022/12/13 03:29:35;;;;;;;26.15;15.10;;;;;;;2.40;87.57;100067.28;1623822;87;21251;-58
2022/12/13 03:32:53;;;;;;;21.95;13.35;;;;;;;2.43;87.60;100069.23;1643414;85;21342;-59
2022/12/13 03:36:29;;;;;;;21.95;13.25;;;;;;;2.46;87.60;100071.66;1641865;86;21267;-58
2022/12/13 03:39:41;;;;;;;23.20;14.27;;;;;;;2.49;87.57;100075.97;1643118;87;21259;-58
2022/12/13 03:42:52;;;;;;;21.47;13.17;;;;;;;2.53;87.67;100076.05;1641670;86;21264;-59
2022/12/13 03:46:09;;;;;;;23.42;14.20;;;;;;;2.56;87.75;100086.10;1641500;86;21244;-59
2022/12/13 03:49:21;;;;;;;19.85;12.68;;;;;;;2.55;87.52;100084.88;1642964;86;21393;-58
2022/12/13 03:52:33;;;;;;;21.05;13.50;;;;;;;2.49;87.25;100080.85;1642185;86;21737;-59
2022/12/13 03:55:49;;;;;;;24.30;15.23;;;;;;;2.41;87.02;100071.72;1641359;86;21351;-58
2022/12/13 03:59:02;;;;;;;20.82;13.95;;;;;;;2.43;87.25;100062.48;1641407;86;21760;-58
2022/12/13 04:02:18;;;;;;;27.87;16.27;;;;;;;2.46;87.33;100065.39;1642563;85;21253;-58
2022/12/13 04:05:32;;;;;;;23.40;14.60;;;;;;;2.45;87.50;100059.64;1642394;86;21260;-57
2022/12/13 04:08:47;;;;;;;23.12;13.75;;;;;;;2.49;87.65;100055.70;1641677;86;21393;-59
2022/12/13 04:15:33;;;;;;;22.02;13.55;;;;;;;2.56;87.78;100060.92;1642450;86;21410;-58
2022/12/13 04:18:48;;;;;;;21.75;14.13;;;;;;;2.58;87.73;100054.90;1641822;87;21256;-59
2022/12/13 04:22:01;;;;;;;23.07;14.60;;;;;;;2.54;87.66;100049.38;1642739;86;21216;-58
2022/12/13 04:25:12;;;;;;;20.60;13.10;;;;;;;2.58;87.75;100054.41;1641743;86;21239;-57
2022/12/13 04:28:23;;;;;;;19.48;13.30;;;;;;;2.58;87.66;100056.25;1647602;83;21207;-57
2022/12/13 04:31:34;;;;;;;18.92;13.00;;;;;;;2.51;87.47;100041.06;1649879;86;21172;-57
2022/12/13 04:34:48;;;;;;;20.10;12.88;;;;;;;2.50;87.56;100039.36;1664836;85;21224;-56
2022/12/13 04:38:02;;;;;;;52.67;27.80;;;;;;;2.52;87.61;100035.17;1664802;86;21275;-59
2022/12/13 04:41:17;;;;;;;63.65;35.03;;;;;;;2.56;87.66;100029.85;1664686;86;21238;-58
2022/12/13 04:44:36;;;;;;;65.67;38.35;;;;;;;2.57;87.69;100031.58;1652471;86;21234;-56
2022/12/13 04:47:53;;;;;;;40.58;24.82;;;;;;;2.52;87.54;100037.36;1664333;86;21267;-57
2022/12/13 04:51:09;;;;;;;31.87;18.80;;;;;;;2.50;87.51;100041.20;1665210;85;21215;-57
2022/12/13 04:54:44;;;;;;;30.77;18.15;;;;;;;2.45;87.24;100042.09;1644928;86;21751;-57
2022/12/13 04:57:45;;;;;;;37.30;22.22;;;;;;;2.34;87.07;100031.36;1668831;83;21223;-56
2022/12/13 05:01:00;;;;;;;38.63;23.05;;;;;;;2.30;87.15;100022.66;1645198;87;21760;-57
2022/12/13 05:04:14;;;;;;;31.10;17.77;;;;;;;2.36;87.37;100032.92;1631652;87;21274;-57
2022/12/13 05:07:22;;;;;;;29.30;18.20;;;;;;;2.42;87.56;100024.31;1642714;86;21408;-57
2022/12/13 05:10:36;;;;;;;33.50;19.10;;;;;;;2.47;87.63;100021.21;1645263;87;21511;-58
2022/12/13 05:14:08;;;;;;;29.75;16.85;;;;;;;2.51;87.73;100011.83;1644828;86;21231;-58
2022/12/13 05:17:26;;;;;;;26.55;15.20;;;;;;;2.54;87.73;100007.02;1645555;87;21239;-58
2022/12/13 05:20:38;;;;;;;27.55;15.65;;;;;;;2.54;87.66;100012.42;1631323;87;21270;-57
2022/12/13 05:24:15;;;;;;;27.40;15.95;;;;;;;2.56;87.65;100005.54;1646220;86;21821;-57
2022/12/13 05:27:29;;;;;;;27.62;16.10;;;;;;;2.58;87.64;99988.71;1622403;85;21358;-57
2022/12/13 05:30:45;;;;;;;25.52;15.25;;;;;;;2.57;87.64;99973.50;1639282;87;21216;-58
2022/12/13 05:33:58;;;;;;;25.88;15.70;;;;;;;2.59;87.62;99962.05;1636070;86;21879;-58
2022/12/13 05:37:11;;;;;;;25.77;15.32;;;;;;;2.60;87.65;99961.07;1617988;88;21976;-57
2022/12/13 05:40:27;;;;;;;27.37;16.67;;;;;;;2.62;87.69;99972.09;1604603;88;21761;-58
2022/12/13 05:43:41;;;;;;;44.25;27.13;;;;;;;2.61;87.61;99974.44;1626815;87;21877;-58
2022/12/13 05:46:52;;;;;;;52.50;31.42;;;;;;;2.60;87.51;99980.81;1596248;88;21261;-57
2022/12/13 05:50:37;;;;;;;64.75;37.10;;;;;;;2.58;87.32;99987.36;1635247;86;21255;-57
2022/12/13 05:54:16;;;;;;;55.43;32.73;;;;;;;2.54;87.21;99993.52;1622040;87;21290;-57
2022/12/13 05:57:29;;;;;;;43.63;24.60;;;;;;;2.47;86.95;99995.55;1632367;85;21160;-58
2022/12/13 06:00:39;;;;;;;45.23;26.85;;;;;;;2.41;86.81;100000.98;1641963;86;21255;-57
2022/12/13 06:03:50;;;;;;;54.85;31.50;;;;;;;2.41;86.98;99997.44;1672576;84;21300;-56
2022/12/13 06:07:04;;;;;;;;;;;;;;;2.45;87.10;100005.14;1664472;85;21188;-58
2022/12/13 06:10:19;;;;;;;34.53;20.10;;;;;;;2.48;87.15;100002.65;1642331;86;20259;-58
2022/12/13 06:13:46;;;;;;;48.63;30.48;;;;;;;2.49;87.21;99988.17;1667427;85;21249;-57
2022/12/13 06:21:15;;;;;;;34.05;19.50;;;;;;;2.61;87.45;99977.63;1726154;78;21268;-58
2022/12/13 06:24:46;;;;;;;37.23;21.82;;;;;;;2.66;87.46;99976.73;1702135;83;21236;-56
2022/12/13 06:28:03;;;;;;;49.93;27.00;;;;;;;2.68;87.39;99984.22;1685049;84;21220;-57
2022/12/13 06:31:19;;;;;;;44.63;24.45;;;;;;;2.63;87.09;99977.01;1686078;84;22162;-57
2022/12/13 06:34:40;;;;;;;36.83;21.70;;;;;;;2.58;87.01;99985.52;1679717;84;21417;-56
2022/12/13 06:38:04;;;;;;;36.63;23.50;;;;;;;2.55;86.79;99975.47;1670219;85;21267;-59
2022/12/13 06:41:40;;;;;;;34.92;22.42;;;;;;;2.54;86.83;99964.28;1670198;85;21745;-56
2022/12/13 06:44:55;;;;;;;32.10;19.57;;;;;;;2.58;86.93;99979.25;1684073;84;21375;-57
2022/12/13 06:48:08;;;;;;;31.80;19.48;;;;;;;2.59;86.94;99987.22;1700052;84;21237;-57
2022/12/13 06:51:34;;;;;;;42.45;23.05;;;;;;;2.59;86.92;99998.03;1698166;83;21340;-57
2022/12/13 06:55:14;;;;;;;34.85;19.60;;;;;;;2.63;87.09;99998.10;1700079;83;21835;-56
2022/12/13 06:58:33;;;;;;;32.73;18.10;;;;;;;2.68;87.07;99989.62;1691466;84;21453;-57
2022/12/13 07:01:53;;;;;;;39.42;22.70;;;;;;;2.70;87.09;99999.28;1698758;84;21992;-58
2022/12/13 07:05:19;;;;;;;35.17;18.55;;;;;;;2.76;87.16;99991.11;1689467;83;21754;-57
2022/12/13 07:08:37;;;;;;;32.17;17.40;;;;;;;2.81;87.18;99985.67;1681118;79;21224;-57
2022/12/13 07:12:02;;;;;;;39.55;21.93;;;;;;;2.88;87.25;99988.69;1712919;83;22687;-57
2022/12/13 07:15:22;;;;;;;35.83;18.05;;;;;;;2.95;87.29;99997.94;1692979;84;21287;-57
2022/12/13 07:19:03;;;;;;;28.40;15.65;;;;;;;3.00;87.21;99995.69;1692969;84;21340;-58
2022/12/13 07:22:32;;;;;;;32.78;19.35;;;;;;;3.00;87.16;99997.05;1682921;84;21200;-56
2022/12/13 07:25:52;;;;;;;33.60;19.32;;;;;;;3.06;87.20;99995.13;1688001;84;21271;-57
2022/12/13 07:29:19;;;;;;;32.45;18.00;;;;;;;3.11;87.18;99997.45;1688848;84;21303;-57
2022/12/13 07:32:50;;;;;;;31.17;17.92;;;;;;;3.10;87.05;99995.23;1662455;86;21232;-57
2022/12/13 07:36:14;;;;;;;40.35;20.50;;;;;;;3.08;86.92;99998.56;1663126;86;21290;-57
2022/12/13 07:39:38;;;;;;;33.65;18.65;;;;;;;3.07;86.90;99987.40;1692379;84;21208;-56
2022/12/13 07:43:05;;;;;;;30.70;17.45;;;;;;;3.08;86.92;99995.38;1659070;85;21287;-57
2022/12/13 07:46:24;;;;;;;33.30;17.25;;;;;;;3.07;86.84;99990.11;1684896;84;21934;-57
2022/12/13 07:49:42;;;;;;;30.08;16.70;;;;;;;3.07;86.79;99990.11;1693839;83;21223;-57
2022/12/13 07:53:02;;;;;;;31.50;16.87;;;;;;;3.08;86.78;99998.56;1693943;83;21883;-58
2022/12/13 07:56:20;;;;;;;35.00;19.30;;;;;;;3.08;86.78;99995.86;1693595;83;22150;-57
2022/12/13 07:59:56;;;;;;;30.40;17.98;;;;;;;3.05;86.70;99993.44;1693602;83;21329;-57
2022/12/13 08:03:20;;;;;;;31.23;16.73;;;;;;;3.06;86.74;99993.78;1670142;84;21291;-57
2022/12/13 08:06:54;;;;;;;30.17;17.90;;;;;;;3.08;86.75;100006.19;1671330;84;21272;-57
2022/12/13 08:10:25;;;;;;;32.38;17.45;;;;;;;3.11;86.73;100018.56;1693899;82;21402;-55
2022/12/13 08:13:43;;;;;;;34.23;18.90;;;;;;;3.12;86.67;100025.70;1692480;83;21244;-58
2022/12/13 08:17:06;;;;;;;31.77;17.67;;;;;;;3.14;86.67;100035.03;1694402;83;21773;-57
2022/12/13 08:20:18;;;;;;;38.28;18.85;;;;;;;3.10;86.59;100038.49;1692804;83;21235;-57
2022/12/13 08:23:34;;;;;;;33.90;19.45;;;;;;;3.11;86.49;100036.66;1668886;84;21824;-56
2022/12/13 08:26:47;;;;;;;38.98;22.32;;;;;;;3.06;86.28;100044.66;1693274;84;21950;-57
2022/12/13 08:29:59;;;;;;;40.45;22.22;;;;;;;2.96;85.97;100041.58;1692507;84;21792;-57
2022/12/13 08:33:09;;;;;;;38.02;22.35;;;;;;;2.89;85.94;100044.45;1662897;85;21717;-57
2022/12/13 08:36:29;;;;;;;44.63;23.87;;;;;;;2.88;85.99;100049.51;1661260;86;21831;-57
2022/12/13 08:40:10;;;;;;;40.23;23.38;;;;;;;2.80;85.87;100040.73;1674824;85;21235;-58
2022/12/13 08:43:49;;;;;;;39.78;22.87;;;;;;;2.73;85.84;100038.20;1678991;85;21650;-57
2022/12/13 08:47:29;;;;;;;36.68;21.10;;;;;;;2.70;85.89;100028.14;1693227;84;21401;-57
2022/12/13 08:50:49;;;;;;;40.20;21.55;;;;;;;2.73;85.94;100025.16;1671521;84;22367;-56
2022/12/13 08:54:54;;;;;;;45.10;22.67;;;;;;;2.77;86.14;99999.60;1704395;83;21267;-57
2022/12/13 08:58:31;;;;;;;36.85;20.35;;;;;;;2.83;86.17;99993.64;1648775;86;21342;-58
2022/12/13 09:05:54;;;;;;;39.95;20.82;;;;;;;2.89;86.16;99964.71;1715458;83;21200;-58
2022/12/13 09:09:14;;;;;;;40.20;20.63;;;;;;;2.94;86.16;99944.40;1672165;85;21263;-59
2022/12/13 09:13:03;;;;;;;43.80;23.40;;;;;;;2.98;86.20;99939.58;1656162;83;21626;-58
2022/12/13 09:16:36;;;;;;;45.45;24.98;;;;;;;3.06;86.40;99945.98;1684712;83;21756;-58
2022/12/13 09:19:56;;;;;;;41.08;22.27;;;;;;;3.13;86.46;99934.11;1671510;85;21318;-58
2022/12/13 09:23:19;;;;;;;42.98;23.45;;;;;;;3.13;86.37;99935.47;1636355;85;21338;-58
2022/12/13 09:26:40;;;;;;;44.23;23.15;;;;;;;3.11;86.20;99919.87;1660255;85;21378;-58
2022/12/13 09:29:52;;;;;;;42.05;22.42;;;;;;;3.13;86.25;99912.48;1659897;85;21227;-58
2022/12/13 09:33:22;;;;;;;41.85;22.67;;;;;;;3.13;86.25;99913.83;1652983;85;21236;-58
2022/12/13 09:36:37;;;;;;;48.55;24.85;;;;;;;3.15;86.28;99917.75;1674344;84;21394;-59
2022/12/13 09:39:55;;;;;;;45.52;23.87;;;;;;;3.14;86.10;99917.41;1688174;83;21291;-58
2022/12/13 09:43:39;;;;;;;46.23;24.57;;;;;;;3.01;85.86;99910.39;1680081;83;21374;-58
2022/12/13 09:47:15;;;;;;;43.68;23.15;;;;;;;2.91;85.78;99903.27;1687275;85;21239;-59
2022/12/13 09:50:55;;;;;;;49.00;26.17;;;;;;;2.88;85.85;99894.09;1672751;85;21303;-57
2022/12/13 09:54:42;;;;;;;49.38;25.82;;;;;;;2.81;85.83;99891.57;1629130;86;22126;-58
2022/12/13 09:58:22;;;;;;;48.92;25.40;;;;;;;2.82;85.97;99883.84;1660557;84;22018;-58
2022/12/13 10:01:52;;;;;;;48.52;24.65;;;;;;;2.86;86.13;99873.96;1648400;85;21378;-56
2022/12/13 10:05:24;;;;;;;45.85;23.30;;;;;;;2.88;86.08;99868.41;1672171;84;21313;-56
2022/12/13 10:09:08;;;;;;;44.05;22.62;;;;;;;2.92;86.18;99867.98;1645971;85;21240;-55
2022/12/13 10:12:36;;;;;;;46.53;23.18;;;;;;;2.93;85.95;99863.45;1864365;74;23186;-56
2022/12/13 10:15:52;;;;;;;43.35;22.42;;;;;;;2.80;85.81;99879.06;1785160;79;21663;-55
2022/12/13 10:19:30;;;;;;;45.35;24.87;;;;;;;2.81;86.00;99865.41;1828525;77;21227;-56
2022/12/13 10:22:44;;;;;;;43.28;22.20;;;;;;;2.75;85.70;99850.25;1810136;79;21568;-55
2022/12/13 10:26:06;;;;;;;40.80;23.12;;;;;;;2.68;85.74;99851.30;1809994;79;21188;-55
2022/12/13 10:29:36;;;;;;;41.37;22.80;;;;;;;2.57;85.60;99840.61;1809889;79;21262;-55
2022/12/13 10:33:52;;;;;;;44.98;24.63;;;;;;;2.62;85.95;99833.44;1810226;79;21250;-56
2022/12/13 10:55:44;;;;;;;93.50;45.52;;;;;;;2.53;86.17;99784.30;1862467;76;22203;-57
2022/12/13 10:58:53;;;;;;;63.87;34.27;;;;;;;2.44;86.11;99781.94;1772854;80;21323;-58
2022/12/13 11:02:05;;;;;;;56.37;30.60;;;;;;;2.36;85.92;99772.84;1774726;79;21192;-58
2022/12/13 11:05:40;;;;;;;57.70;32.38;;;;;;;2.29;85.87;99764.92;1798153;78;21285;-59
2022/12/13 11:09:04;;;;;;;57.00;31.40;;;;;;;2.17;85.75;99757.42;1780430;78;21223;-61
2022/12/13 11:12:22;;;;;;;50.50;28.30;;;;;;;2.14;85.83;99749.61;1788321;78;21244;-60
2022/12/13 11:16:11;;;;;;;54.45;28.65;;;;;;;2.17;85.93;99749.84;1802029;78;21621;-59
2022/12/13 11:20:04;;;;;;;49.03;28.75;;;;;;;2.12;85.93;99743.52;1782764;79;21342;-58
2022/12/13 11:23:35;;;;;;;50.45;27.07;;;;;;;2.12;86.04;99727.80;1783217;78;21247;-60
2022/12/13 11:26:56;;;;;;;43.20;24.40;;;;;;;2.18;86.22;99721.84;1762489;78;21219;-59
2022/12/13 11:30:56;;;;;;;45.65;24.30;;;;;;;2.21;86.21;99722.42;1790241;77;21307;-60
2022/12/13 11:34:41;;;;;;;42.58;22.65;;;;;;;2.35;86.26;99704.95;1821102;76;22333;-60
2022/12/13 11:38:35;;;;;;;34.98;20.80;;;;;;;2.28;86.15;99701.13;1682295;82;21283;-60
2022/12/13 11:42:00;;;;;;;38.13;20.43;;;;;;;2.29;86.25;99702.83;1720270;83;21293;-60
2022/12/13 11:45:43;;;;;;;34.83;19.32;;;;;;;2.31;86.25;99703.55;1739378;81;21201;-59
2022/12/13 11:49:04;;;;;;;36.55;20.35;;;;;;;2.34;86.20;99704.61;1758579;79;21243;-60
2022/12/13 11:52:36;;;;;;;36.08;19.70;;;;;;;2.24;85.97;99686.19;1738298;81;21265;-59
2022/12/13 11:55:53;;;;;;;39.35;21.52;;;;;;;2.18;85.93;99674.60;1738558;82;21217;-60
2022/12/13 11:59:25;;;;;;;38.53;21.90;;;;;;;2.04;85.65;99672.31;1739362;82;21221;-58
2022/12/13 12:02:54;;;;;;;40.17;21.52;;;;;;;1.95;85.73;99666.41;1751562;80;21271;-58
2022/12/13 12:06:38;;;;;;;44.30;22.37;;;;;;;2.02;85.97;99663.01;1752541;80;21198;-57
2022/12/13 12:09:42;;;;;;;39.80;21.33;;;;;;;2.04;85.99;99651.59;1760378;80;21398;-57
2022/12/13 12:13:16;;;;;;;38.98;22.15;;;;;;;1.96;85.90;99655.97;1711888;83;22121;-59
2022/12/13 12:16:47;;;;;;;37.48;20.48;;;;;;;1.90;85.88;99658.73;1746795;80;21272;-58
2022/12/13 12:20:03;;;;;;;32.30;19.67;;;;;;;1.92;86.10;99652.69;1688165;85;22247;-59
2022/12/13 12:23:46;;;;;;;37.40;21.02;;;;;;;1.99;86.27;99648.94;1698148;80;21306;-60
2022/12/13 12:27:20;;;;;;;33.75;18.48;;;;;;;1.97;86.13;99647.73;1713636;83;21275;-58
2022/12/13 12:31:18;;;;;;;39.63;20.97;;;;;;;1.94;86.12;99641.75;1723305;80;21217;-59
2022/12/13 12:34:52;;;;;;;37.10;19.80;;;;;;;1.94;86.11;99640.40;1745709;80;21276;-59
2022/12/13 12:38:14;;;;;;;34.30;19.50;;;;;;;1.94;86.15;99635.00;1751888;80;21210;-59
2022/12/13 12:42:03;;;;;;;35.58;18.92;;;;;;;1.96;86.19;99641.13;1722599;81;21244;-58
2022/12/13 12:45:34;;;;;;;32.10;17.10;;;;;;;1.94;86.13;99635.00;1749762;81;21248;-58
2022/12/13 12:49:33;;;;;;;27.93;16.02;;;;;;;1.88;86.06;99627.47;1738568;80;21263;-58
2022/12/13 12:53:13;;;;;;;28.23;16.85;;;;;;;1.85;86.13;99635.36;1729624;81;21232;-59
2022/12/13 13:00:18;;;;;;;28.67;16.23;;;;;;;1.78;86.04;99618.02;1742688;80;21245;-60
2022/12/13 13:03:32;;;;;;;29.95;16.25;;;;;;;1.75;86.12;99614.25;1741627;80;21255;-59
2022/12/13 13:06:59;;;;;;;27.05;14.95;;;;;;;1.74;86.20;99596.86;1732287;80;22169;-59
2022/12/13 13:10:14;;;;;;;31.42;16.90;;;;;;;1.76;86.32;99598.92;1748314;81;21249;-60
2022/12/13 13:13:54;;;;;;;28.98;16.32;;;;;;;1.70;86.10;99594.09;1744446;82;21203;-60
2022/12/13 13:17:06;;;;;;;28.52;14.95;;;;;;;1.54;85.94;99584.68;1735424;80;21243;-61
2022/12/13 13:20:29;;;;;;;26.57;15.75;;;;;;;1.48;85.94;99578.50;1744719;80;21316;-60
2022/12/13 13:23:44;;;;;;;29.30;16.07;;;;;;;1.40;85.88;99572.08;1742862;80;21246;-60
2022/12/13 13:27:12;;;;;;;30.10;17.02;;;;;;;1.33;85.91;99562.34;1739348;80;21785;-60
2022/12/13 13:30:42;;;;;;;29.52;17.23;;;;;;;1.27;85.91;99556.16;1732094;81;21368;-60
2022/12/13 13:34:44;;;;;;;33.15;17.50;;;;;;;1.23;85.96;99556.09;1740316;80;21213;-57
2022/12/13 13:38:01;;;;;;;32.60;18.32;;;;;;;1.08;85.85;99539.92;1739295;80;21228;-57
2022/12/13 13:41:44;;;;;;;34.95;19.25;;;;;;;1.08;86.13;99533.19;1716222;81;21295;-56
2022/12/13 13:45:01;;;;;;;37.38;19.87;;;;;;;1.02;86.07;99534.23;1723336;80;21316;-56
2022/12/13 13:48:40;;;;;;;32.17;17.95;;;;;;;0.97;86.27;99517.12;1716585;81;21224;-55
2022/12/13 13:52:05;;;;;;;34.27;18.30;;;;;;;0.95;86.30;99516.92;1734174;80;21221;-57
2022/12/13 13:55:37;;;;;;;33.83;17.57;;;;;;;0.94;86.41;99521.45;1715946;82;21587;-57
2022/12/13 13:59:21;;;;;;;36.25;18.50;;;;;;;0.96;86.62;99501.11;1732990;80;21232;-58
2022/12/13 14:03:48;;;;;;;34.05;18.27;;;;;;;1.01;86.70;99485.39;1737500;80;21764;-57
2022/12/13 14:07:48;;;;;;;34.92;18.07;;;;;;;0.95;86.63;99492.16;1711578;83;21572;-58
2022/12/13 14:11:51;;;;;;;33.73;18.82;;;;;;;0.90;86.64;99493.09;1712633;83;21546;-57
2022/12/13 14:15:49;;;;;;;36.75;19.48;;;;;;;0.87;86.68;99492.51;1707828;82;22118;-56
2022/12/13 14:19:18;;;;;;;33.40;18.40;;;;;;;0.81;86.60;99484.98;1691794;83;21312;-57
2022/12/13 14:23:00;;;;;;;37.83;17.82;;;;;;;0.75;86.67;99474.24;1716761;82;21260;-58
2022/12/13 14:27:14;;;;;;;39.33;21.60;;;;;;;0.76;86.70;99476.45;1706812;82;21317;-58
2022/12/13 14:30:38;;;;;;;33.80;19.10;;;;;;;0.75;86.73;99484.16;1629137;82;21241;-58
2022/12/13 14:34:03;;;;;;;37.55;18.42;;;;;;;0.76;86.88;99482.67;1688808;83;22901;-58
2022/12/13 14:37:39;;;;;;;55.63;22.95;;;;;;;0.79;86.94;99477.03;1668409;84;21745;-57
2022/12/13 14:41:00;;;;;;;38.08;20.97;;;;;;;0.82;86.94;99476.77;1645959;85;21245;-58
2022/12/13 14:44:36;;;;;;;33.20;19.00;;;;;;;0.80;86.90;99477.38;1668358;85;21521;-58
2022/12/13 14:47:53;;;;;;;28.90;15.60;;;;;;;0.83;86.96;99484.33;1670553;85;21771;-57
2022/12/13 14:51:06;;;;;;;27.40;14.30;;;;;;;0.80;86.90;99465.75;1693091;83;21276;-60
2022/12/13 14:54:24;;;;;;;29.42;15.55;;;;;;;0.78;86.93;99452.91;1692945;84;21833;-62
2022/12/13 14:57:48;;;;;;;27.93;15.72;;;;;;;0.75;86.92;99444.62;1700532;82;21808;-61
2022/12/13 15:01:42;;;;;;;29.32;15.90;;;;;;;0.81;87.04;99444.06;1704097;82;21744;-61
2022/12/13 15:05:07;;;;;;;28.90;16.20;;;;;;;0.84;87.02;99446.48;1681030;84;21557;-62
2022/12/13 15:08:27;;;;;;;26.40;15.28;;;;;;;0.79;86.96;99447.90;1716280;82;21226;-62
2022/12/13 15:11:40;;;;;;;29.95;16.62;;;;;;;0.80;87.03;99441.02;1712278;83;21430;-60
2022/12/13 15:14:55;;;;;;;25.75;14.70;;;;;;;0.79;86.97;99458.19;1711525;82;21281;-61
2022/12/13 15:18:25;;;;;;;27.45;14.63;;;;;;;0.76;86.98;99458.43;1726384;82;21260;-60
2022/12/13 15:21:39;;;;;;;23.83;13.90;;;;;;;0.81;87.05;99458.05;1732113;80;22165;-60
2022/12/13 15:24:49;;;;;;;23.90;12.70;;;;;;;0.84;87.12;99453.73;1718171;82;21768;-61
2022/12/13 15:28:03;;;;;;;24.75;14.60;;;;;;;0.85;87.08;99447.34;1727484;80;21204;-60
2022/12/13 15:31:12;;;;;;;28.38;13.65;;;;;;;0.86;87.13;99449.89;1737247;81;21297;-61
2022/12/13 15:34:42;;;;;;;21.75;14.15;;;;;;;0.87;87.13;99459.66;1740291;81;21258;-61
2022/12/13 15:37:56;;;;;;;24.27;14.00;;;;;;;0.87;87.09;99454.28;1728540;81;21222;-60
2022/12/13 15:41:07;;;;;;;27.07;14.55;;;;;;;0.86;86.99;99451.23;1710021;82;21563;-61
2022/12/13 15:44:24;;;;;;;25.25;14.07;;;;;;;0.82;86.93;99443.09;1733915;82;21238;-61
2022/12/13 15:47:31;;;;;;;23.42;13.90;;;;;;;0.77;86.85;99437.27;1734308;82;21297;-61
2022/12/13 15:50:42;;;;;;;24.50;13.95;;;;;;;0.75;86.90;99435.20;1732782;82;21250;-62
2022/12/13 15:54:13;;;;;;;25.92;14.47;;;;;;;0.75;86.90;99444.62;1735254;82;21281;-60
2022/12/13 15:57:28;;;;;;;24.90;14.40;;;;;;;0.74;86.93;99436.19;1740539;82;21400;-60
2022/12/13 16:00:41;;;;;;;26.15;14.70;;;;;;;0.78;86.98;99436.75;1741169;82;21366;-60
2022/12/13 16:04:20;;;;;;;23.35;12.90;;;;;;;0.77;87.00;99434.57;1739558;82;21603;-60
2022/12/13 16:07:40;;;;;;;22.55;13.48;;;;;;;0.89;87.09;99425.38;1870047;76;22227;-61
2022/12/13 16:10:54;;;;;;;26.20;14.63;;;;;;;0.87;87.11;99422.47;1778453;80;21317;-61
2022/12/13 16:14:01;;;;;;;21.73;13.15;;;;;;;0.89;87.07;99425.38;1757940;81;21606;-60
2022/12/13 16:17:31;;;;;;;23.60;13.22;;;;;;;0.92;87.09;99432.34;1769855;79;21319;-59
2022/12/13 16:20:40;;;;;;;21.87;12.93;;;;;;;0.94;87.08;99431.20;1772010;80;21205;-59
2022/12/13 16:23:50;;;;;;;19.52;12.20;;;;;;;0.96;87.12;99441.35;1822543;78;21295;-59
2022/12/13 16:27:00;;;;;;;22.20;11.95;;;;;;;1.01;87.18;99445.84;1805832;78;21262;-58